Time;durP1;ratioP1;P1;durP2;ratioP2;P2;SDS_P1;SDS_P2;PMS_P1;PMS_P2;Temp;Humidity;BMP_temperature;BMP_pressure;BME280_temperature;BME280_humidity;BME280_pressure;Samples;Min_cycle;Max_cycle;Signal;HPM_P1;HPM_P2
2023/07/26 00:00:07;;;;;;;3.15;2.75;;;13.30;99.90;;;;;;5065838;28;20028;-33
2023/07/26 00:02:32;;;;;;;4.22;2.97;;;13.30;99.90;;;;;;5065264;28;20047;-31
2023/07/26 00:04:58;;;;;;;4.20;3.10;;;13.30;99.90;;;;;;5067508;28;20032;-31
2023/07/26 00:07:24;;;;;;;3.40;3.10;;;13.30;99.90;;;;;;5064265;28;20039;-31
2023/07/26 00:09:49;;;;;;;6.38;3.17;;;13.20;99.90;;;;;;5063696;28;20035;-31
2023/07/26 00:12:15;;;;;;;3.15;2.85;;;13.30;99.90;;;;;;5063169;28;20029;-31
2023/07/26 00:14:40;;;;;;;3.72;3.25;;;13.20;99.90;;;;;;5066597;28;20070;-31
2023/07/26 00:17:06;;;;;;;6.68;3.65;;;13.20;99.90;;;;;;5067610;28;20032;-34
2023/07/26 00:19:32;;;;;;;4.30;3.03;;;13.20;99.90;;;;;;5065515;28;20032;-32
2023/07/26 00:21:57;;;;;;;4.38;3.63;;;13.20;99.90;;;;;;5065503;28;20036;-36
2023/07/26 00:24:23;;;;;;;4.88;3.25;;;13.20;99.90;;;;;;5064210;28;20028;-32
2023/07/26 00:26:49;;;;;;;3.83;2.95;;;13.10;99.90;;;;;;5065606;28;20504;-38
2023/07/26 00:29:14;;;;;;;3.42;2.97;;;13.20;99.90;;;;;;5062933;28;20129;-39
2023/07/26 00:31:42;;;;;;;4.85;3.05;;;13.20;99.90;;;;;;5058059;28;20111;-41
2023/07/26 00:34:08;;;;;;;3.85;3.03;;;13.10;99.90;;;;;;5059441;28;20942;-39
2023/07/26 00:36:33;;;;;;;5.22;3.47;;;13.10;99.90;;;;;;5063926;28;20049;-42
2023/07/26 00:38:59;;;;;;;3.78;3.38;;;13.20;99.90;;;;;;5060326;28;20067;-41
2023/07/26 00:41:25;;;;;;;5.13;3.30;;;13.20;99.90;;;;;;5061954;28;20024;-39
2023/07/26 00:43:50;;;;;;;5.15;3.40;;;13.20;99.90;;;;;;5077248;28;20074;-42
2023/07/26 00:46:16;;;;;;;6.00;3.45;;;13.20;99.90;;;;;;5064548;28;20039;-42
2023/07/26 00:48:42;;;;;;;5.25;3.42;;;13.20;99.90;;;;;;5042115;28;20043;-37
2023/07/26 00:51:08;;;;;;;6.72;3.33;;;13.20;99.90;;;;;;5060026;28;20860;-38
2023/07/26 00:53:34;;;;;;;3.72;3.25;;;13.20;99.90;;;;;;5061823;28;20032;-39
2023/07/26 00:55:59;;;;;;;4.40;3.40;;;13.20;99.90;;;;;;5061885;28;20562;-42
2023/07/26 00:58:25;;;;;;;4.30;3.90;;;13.20;99.90;;;;;;5058436;28;20469;-42
2023/07/26 01:00:51;;;;;;;4.82;3.25;;;13.20;99.90;;;;;;5062200;28;20110;-41
2023/07/26 01:03:17;;;;;;;4.60;3.38;;;13.20;99.90;;;;;;5061704;28;20047;-42
2023/07/26 01:05:55;;;;;;;3.83;3.40;;;13.10;99.90;;;;;;5062133;28;20037;-36
2023/07/26 01:08:48;;;;;;;3.13;2.63;;;13.00;99.90;;;;;;5061315;28;20021;-41
2023/07/26 01:11:22;;;;;;;4.22;3.20;;;12.90;99.90;;;;;;5059834;28;20052;-42
2023/07/26 01:14:16;;;;;;;2.88;2.50;;;12.90;99.90;;;;;;5062507;28;20505;-39
2023/07/26 01:16:42;;;;;;;3.58;3.03;;;12.90;99.90;;;;;;5061149;28;20109;-41
2023/07/26 01:19:08;;;;;;;6.10;3.65;;;12.90;99.90;;;;;;5063650;28;20041;-41
2023/07/26 01:21:33;;;;;;;4.15;2.95;;;12.90;99.90;;;;;;5062974;28;20040;-40
2023/07/26 01:23:59;;;;;;;5.93;3.80;;;12.90;99.90;;;;;;5058259;28;20029;-40
2023/07/26 01:26:25;;;;;;;5.80;4.00;;;12.90;99.90;;;;;;5063982;28;20039;-41
2023/07/26 01:28:50;;;;;;;5.55;3.50;;;12.90;99.90;;;;;;5058923;28;20031;-39
2023/07/26 01:31:18;;;;;;;4.80;3.47;;;12.90;99.90;;;;;;5062993;28;20033;-42
2023/07/26 01:33:45;;;;;;;5.22;3.85;;;13.00;99.90;;;;;;5058948;28;20033;-41
2023/07/26 01:36:11;;;;;;;5.53;3.85;;;13.00;99.90;;;;;;5063409;28;20040;-41
2023/07/26 01:38:37;;;;;;;3.67;3.22;;;13.00;99.90;;;;;;5058979;28;20024;-39
2023/07/26 01:41:04;;;;;;;4.97;4.18;;;13.10;99.90;;;;;;5063941;28;20103;-35
2023/07/26 01:43:30;;;;;;;4.57;3.70;;;13.10;99.90;;;;;;5060948;28;20033;-33
2023/07/26 01:45:56;;;;;;;5.95;3.92;;;13.10;99.90;;;;;;5059467;28;20021;-36
2023/07/26 01:48:21;;;;;;;5.85;3.97;;;13.10;99.90;;;;;;5059960;28;20074;-35
2023/07/26 01:50:47;;;;;;;6.50;3.88;;;13.10;99.90;;;;;;5061239;28;20029;-33
2023/07/26 01:53:12;;;;;;;5.47;4.07;;;13.10;99.90;;;;;;5062605;28;20021;-32
2023/07/26 01:55:38;;;;;;;5.88;4.03;;;13.10;99.90;;;;;;5059953;28;20052;-33
2023/07/26 01:58:04;;;;;;;6.63;4.47;;;13.10;99.90;;;;;;5063379;28;20021;-33
2023/07/26 02:00:29;;;;;;;4.65;3.85;;;13.10;99.90;;;;;;5063054;28;20104;-33
2023/07/26 02:02:55;;;;;;;5.78;4.05;;;13.10;99.90;;;;;;5083441;28;20086;-33
2023/07/26 02:05:20;;;;;;;6.22;5.00;;;13.10;99.90;;;;;;5080359;28;20036;-35
2023/07/26 02:07:46;;;;;;;5.57;4.18;;;13.10;99.90;;;;;;5082659;28;20108;-33
2023/07/26 02:10:12;;;;;;;5.07;4.05;;;13.10;99.90;;;;;;5082467;28;20497;-40
2023/07/26 02:12:37;;;;;;;7.40;4.28;;;13.10;99.90;;;;;;5082598;28;20697;-41
2023/07/26 02:15:04;;;;;;;5.85;4.30;;;13.10;99.90;;;;;;5084596;28;20031;-41
2023/07/26 02:17:30;;;;;;;6.63;4.47;;;13.10;99.90;;;;;;5082453;28;20409;-41
2023/07/26 02:19:56;;;;;;;7.38;4.53;;;13.20;99.90;;;;;;5086445;28;20016;-39
2023/07/26 02:22:21;;;;;;;8.27;5.40;;;13.20;99.90;;;;;;5077465;28;20474;-40
2023/07/26 02:24:47;;;;;;;7.70;5.30;;;13.20;99.90;;;;;;5095871;28;20439;-40
2023/07/26 02:27:12;;;;;;;7.40;5.15;;;13.30;99.90;;;;;;5082748;28;20024;-40
2023/07/26 02:29:38;;;;;;;9.57;5.63;;;13.30;99.90;;;;;;5080095;28;20052;-39
2023/07/26 02:32:04;;;;;;;8.77;5.47;;;13.30;99.90;;;;;;5082264;28;20386;-40
2023/07/26 02:34:30;;;;;;;8.75;5.88;;;13.30;99.90;;;;;;5081357;28;20065;-41
2023/07/26 02:36:55;;;;;;;9.80;5.35;;;13.20;99.90;;;;;;5080887;28;20029;-41
2023/07/26 02:39:21;;;;;;;11.00;5.97;;;13.10;99.90;;;;;;5082689;28;20024;-39
2023/07/26 02:41:46;;;;;;;9.30;5.82;;;13.10;99.90;;;;;;5081225;28;20033;-38
2023/07/26 02:44:12;;;;;;;11.30;5.95;;;13.10;99.90;;;;;;5083228;28;20040;-41
2023/07/26 02:46:37;;;;;;;9.00;5.88;;;13.10;99.90;;;;;;5081396;28;20032;-38
2023/07/26 02:49:03;;;;;;;9.40;6.82;;;13.00;99.90;;;;;;5080915;28;20029;-37
2023/07/26 02:51:29;;;;;;;8.82;6.43;;;13.00;99.90;;;;;;5080853;28;20024;-41
2023/07/26 02:53:54;;;;;;;9.23;6.95;;;13.00;99.90;;;;;;5080331;28;20085;-41
2023/07/26 02:56:20;;;;;;;10.18;7.22;;;13.10;99.90;;;;;;5077563;28;20044;-41
2023/07/26 02:58:45;;;;;;;10.75;7.28;;;13.00;99.90;;;;;;5082262;28;20039;-38
2023/07/26 03:01:11;;;;;;;9.38;6.95;;;13.00;99.90;;;;;;5083252;28;20036;-40
2023/07/26 03:03:36;;;;;;;12.25;7.53;;;13.00;99.90;;;;;;5087686;28;20040;-37
2023/07/26 03:06:02;;;;;;;11.20;6.95;;;13.00;99.90;;;;;;5085979;28;20027;-39
2023/07/26 03:08:27;;;;;;;12.57;7.45;;;13.00;99.90;;;;;;5085979;28;20035;-40
2023/07/26 03:10:53;;;;;;;9.75;6.72;;;13.00;99.90;;;;;;5086421;28;20024;-41
2023/07/26 03:13:19;;;;;;;11.23;7.50;;;13.00;99.90;;;;;;5082665;28;20089;-36
2023/07/26 03:15:45;;;;;;;9.85;7.32;;;13.10;99.90;;;;;;5087573;28;20035;-41
2023/07/26 03:18:10;;;;;;;11.93;7.55;;;13.10;99.90;;;;;;5084402;28;20414;-41
2023/07/26 03:20:36;;;;;;;12.90;7.35;;;13.10;99.90;;;;;;5085036;28;20054;-38
2023/07/26 03:23:02;;;;;;;9.50;7.00;;;13.10;99.90;;;;;;5084419;28;20031;-40
2023/07/26 03:25:27;;;;;;;11.35;7.53;;;13.10;99.90;;;;;;5088965;28;20064;-41
2023/07/26 03:27:53;;;;;;;11.95;7.80;;;13.00;99.90;;;;;;5081234;28;20028;-39
2023/07/26 03:30:19;;;;;;;11.57;7.72;;;13.10;99.90;;;;;;5086019;28;20033;-41
2023/07/26 03:32:44;;;;;;;15.23;8.90;;;13.10;99.90;;;;;;5086545;28;20058;-39
2023/07/26 03:35:10;;;;;;;11.90;8.23;;;13.20;99.90;;;;;;5085571;28;20038;-41
2023/07/26 03:37:35;;;;;;;16.23;8.60;;;13.10;99.90;;;;;;5086725;28;20027;-39
2023/07/26 03:40:01;;;;;;;13.18;8.73;;;13.20;99.90;;;;;;5082956;28;20036;-39
2023/07/26 03:42:27;;;;;;;13.07;8.23;;;13.10;99.90;;;;;;5081337;28;20077;-41
2023/07/26 03:44:53;;;;;;;14.25;8.88;;;13.20;99.90;;;;;;5083714;28;20028;-41
2023/07/26 03:47:19;;;;;;;12.90;8.88;;;13.20;99.90;;;;;;5086252;28;20081;-41
2023/07/26 03:49:44;;;;;;;10.65;8.10;;;13.20;99.90;;;;;;5087804;28;20028;-40
2023/07/26 03:52:10;;;;;;;11.73;8.32;;;13.20;99.90;;;;;;5087073;28;20015;-41
2023/07/26 03:54:35;;;;;;;13.75;9.07;;;13.10;99.90;;;;;;5080991;28;20517;-41
2023/07/26 03:57:01;;;;;;;13.57;8.80;;;13.10;99.90;;;;;;5086772;28;20043;-40
2023/07/26 03:59:27;;;;;;;14.50;9.65;;;13.10;99.90;;;;;;5087221;28;20032;-39
2023/07/26 04:01:53;;;;;;;13.60;8.88;;;13.00;99.90;;;;;;5083519;28;20123;-40
2023/07/26 04:04:18;;;;;;;14.25;8.43;;;13.10;99.90;;;;;;5101460;27;20064;-41
2023/07/26 04:06:44;;;;;;;14.80;9.38;;;13.10;99.90;;;;;;5083730;28;20036;-42
2023/07/26 04:09:09;;;;;;;12.25;8.63;;;13.20;99.90;;;;;;5086407;28;20024;-39
2023/07/26 04:11:35;;;;;;;15.73;9.02;;;13.10;99.90;;;;;;5087852;28;20193;-41
2023/07/26 04:14:01;;;;;;;15.60;9.23;;;13.20;99.90;;;;;;5085223;28;20111;-41
2023/07/26 04:16:26;;;;;;;14.98;8.63;;;13.20;99.90;;;;;;5083721;28;20425;-37
2023/07/26 04:18:52;;;;;;;12.57;8.50;;;13.10;99.90;;;;;;5097956;27;20055;-41
2023/07/26 04:21:18;;;;;;;13.95;9.40;;;13.20;99.90;;;;;;5083624;28;20428;-41
2023/07/26 04:23:45;;;;;;;14.65;9.70;;;13.20;99.90;;;;;;5084374;28;20051;-36
2023/07/26 04:26:10;;;;;;;16.95;9.65;;;13.20;99.90;;;;;;5086058;28;20020;-39
2023/07/26 04:28:36;;;;;;;16.02;10.05;;;13.10;99.90;;;;;;5086287;28;20035;-32
2023/07/26 04:31:02;;;;;;;11.98;8.65;;;13.20;99.90;;;;;;5084313;28;20040;-33
2023/07/26 04:33:28;;;;;;;13.40;9.48;;;13.20;99.90;;;;;;5066501;28;20027;-33
2023/07/26 04:35:54;;;;;;;15.02;9.32;;;13.20;99.90;;;;;;5064716;28;20108;-31
2023/07/26 04:38:20;;;;;;;14.38;9.93;;;13.20;99.90;;;;;;5078174;28;20036;-38
2023/07/26 04:40:47;;;;;;;15.07;9.65;;;13.20;99.90;;;;;;5068442;28;20032;-32
2023/07/26 04:43:20;;;;;;;15.48;9.88;;;13.20;99.90;;;;;;5068246;28;20378;-31
2023/07/26 04:45:47;;;;;;;13.80;8.80;;;13.10;99.90;;;;;;5065322;28;20024;-31
2023/07/26 04:48:13;;;;;;;13.68;8.65;;;13.20;99.90;;;;;;5063175;28;20106;-32
2023/07/26 04:50:38;;;;;;;15.75;9.13;;;13.10;99.90;;;;;;5064594;28;20029;-34
2023/07/26 04:53:04;;;;;;;13.20;8.88;;;13.10;99.90;;;;;;5061318;28;20498;-34
2023/07/26 04:55:30;;;;;;;15.32;9.85;;;13.10;99.90;;;;;;5064107;28;20041;-31
2023/07/26 04:57:56;;;;;;;13.43;9.30;;;13.10;99.90;;;;;;5066242;28;20123;-35
2023/07/26 05:00:21;;;;;;;13.35;8.43;;;13.10;99.90;;;;;;5063523;28;20119;-33
2023/07/26 05:02:47;;;;;;;13.32;9.57;;;13.10;99.90;;;;;;5066762;28;20037;-35
2023/07/26 05:05:13;;;;;;;12.57;8.88;;;13.10;99.90;;;;;;5066062;28;20428;-31
2023/07/26 05:07:38;;;;;;;14.57;9.20;;;13.10;99.90;;;;;;5062549;28;20024;-32
2023/07/26 05:10:05;;;;;;;14.88;9.35;;;13.10;99.90;;;;;;5064498;28;20123;-33
2023/07/26 05:12:30;;;;;;;14.00;9.00;;;13.10;99.90;;;;;;5062712;28;20486;-31
2023/07/26 05:14:56;;;;;;;14.35;9.73;;;13.10;99.90;;;;;;5069036;28;20031;-34
2023/07/26 05:17:22;;;;;;;12.57;9.15;;;13.20;99.90;;;;;;5064340;28;20525;-33
2023/07/26 05:19:47;;;;;;;14.20;8.88;;;13.10;99.90;;;;;;5064711;28;20037;-34
2023/07/26 05:22:13;;;;;;;15.70;9.05;;;13.10;99.90;;;;;;5064138;28;21053;-34
2023/07/26 05:24:38;;;;;;;12.02;9.13;;;13.20;99.90;;;;;;5060889;28;20032;-34
2023/07/26 05:27:04;;;;;;;14.43;9.27;;;13.20;99.90;;;;;;5062296;28;20036;-34
2023/07/26 05:29:30;;;;;;;13.55;8.82;;;13.20;99.90;;;;;;5081310;28;20419;-33
2023/07/26 05:31:56;;;;;;;15.02;9.43;;;13.10;99.90;;;;;;5059447;28;20078;-34
2023/07/26 05:34:21;;;;;;;16.27;8.85;;;13.20;99.90;;;;;;5063230;28;20464;-33
2023/07/26 05:36:47;;;;;;;14.85;9.07;;;13.20;99.90;;;;;;5065140;28;20449;-36
2023/07/26 05:39:12;;;;;;;13.98;9.10;;;13.20;99.90;;;;;;5065470;28;20029;-35
2023/07/26 05:41:38;;;;;;;12.25;8.20;;;13.30;99.90;;;;;;5059923;28;20126;-33
2023/07/26 05:44:04;;;;;;;12.30;8.27;;;13.30;99.90;;;;;;5055124;28;20099;-34
2023/07/26 05:46:29;;;;;;;14.55;8.75;;;13.30;99.90;;;;;;5053274;28;20043;-33
2023/07/26 05:48:55;;;;;;;11.52;8.35;;;13.30;99.90;;;;;;5064326;28;20025;-33
2023/07/26 05:51:21;;;;;;;15.38;9.10;;;13.40;99.90;;;;;;5044960;28;20155;-35
2023/07/26 05:53:46;;;;;;;14.27;8.43;;;13.40;99.90;;;;;;5059103;28;20056;-36
2023/07/26 05:56:14;;;;;;;10.82;8.20;;;13.40;99.90;;;;;;5060936;28;20039;-36
2023/07/26 05:58:39;;;;;;;11.10;7.85;;;13.40;99.90;;;;;;5057241;28;20032;-34
2023/07/26 06:01:05;;;;;;;12.88;8.43;;;13.40;99.90;;;;;;5055081;28;20095;-35
2023/07/26 06:03:33;;;;;;;14.27;8.43;;;13.50;99.90;;;;;;5062419;28;20063;-36
2023/07/26 06:05:59;;;;;;;11.50;8.38;;;13.50;99.90;;;;;;5057196;28;20036;-35
2023/07/26 06:08:25;;;;;;;11.70;7.68;;;13.60;99.90;;;;;;5061426;28;20035;-34
2023/07/26 06:10:50;;;;;;;11.43;7.78;;;13.60;99.90;;;;;;5048815;28;20029;-38
2023/07/26 06:13:16;;;;;;;12.93;8.10;;;13.60;99.90;;;;;;5044219;28;20461;-34
2023/07/26 06:15:42;;;;;;;10.63;7.50;;;13.60;99.90;;;;;;5063186;28;20107;-34
2023/07/26 06:18:07;;;;;;;12.38;7.90;;;13.70;99.90;;;;;;5065752;28;20036;-35
2023/07/26 06:20:34;;;;;;;9.57;7.07;;;13.70;99.90;;;;;;5061692;28;20025;-33
2023/07/26 06:22:59;;;;;;;11.82;7.97;;;13.80;99.90;;;;;;5063103;28;20033;-36
2023/07/26 06:25:25;;;;;;;13.65;7.57;;;13.80;99.90;;;;;;5063804;28;20021;-34
2023/07/26 06:27:51;;;;;;;10.68;7.32;;;13.80;99.90;;;;;;5058499;28;20044;-34
2023/07/26 06:30:16;;;;;;;11.43;7.53;;;13.80;99.90;;;;;;5063317;28;20052;-38
2023/07/26 06:32:42;;;;;;;8.40;6.80;;;13.80;99.90;;;;;;5059344;28;20025;-42
2023/07/26 06:35:08;;;;;;;10.68;7.03;;;13.80;99.90;;;;;;5062754;28;20025;-39
2023/07/26 06:37:35;;;;;;;10.13;7.35;;;13.80;99.90;;;;;;5066090;28;20035;-42
2023/07/26 06:40:01;;;;;;;10.82;6.78;;;13.90;99.90;;;;;;5064242;28;20048;-38
2023/07/26 06:42:26;;;;;;;9.90;6.57;;;13.90;99.90;;;;;;5063008;28;20406;-39
2023/07/26 06:44:55;;;;;;;8.25;6.63;;;13.90;99.90;;;;;;5065857;28;20025;-42
2023/07/26 06:47:21;;;;;;;13.75;6.82;;;14.00;99.90;;;;;;5064676;28;20398;-39
2023/07/26 06:49:46;;;;;;;9.15;6.28;;;14.00;99.90;;;;;;5065909;28;20028;-40
2023/07/26 06:52:12;;;;;;;10.93;5.95;;;13.90;99.90;;;;;;5067406;28;20024;-40
2023/07/26 06:54:38;;;;;;;8.25;6.43;;;14.00;99.90;;;;;;5069414;28;20071;-40
2023/07/26 06:57:04;;;;;;;12.15;6.15;;;14.00;99.90;;;;;;5065697;28;20040;-42
2023/07/26 06:59:30;;;;;;;7.15;6.15;;;14.00;99.90;;;;;;5063256;28;20036;-32
2023/07/26 07:01:55;;;;;;;7.05;5.43;;;13.90;99.90;;;;;;5067059;28;20045;-33
2023/07/26 07:04:21;;;;;;;12.23;5.55;;;14.00;99.90;;;;;;5063495;28;20033;-35
2023/07/26 07:06:46;;;;;;;6.57;5.35;;;14.00;99.90;;;;;;5065456;28;20029;-32
2023/07/26 07:09:12;;;;;;;6.25;5.32;;;14.10;99.90;;;;;;5068176;28;20033;-32
2023/07/26 07:11:38;;;;;;;7.43;5.75;;;14.20;99.90;;;;;;5065913;28;20025;-32
2023/07/26 07:14:04;;;;;;;6.93;5.30;;;14.30;99.90;;;;;;5068574;28;20035;-32
2023/07/26 07:16:29;;;;;;;8.35;6.03;;;14.30;99.90;;;;;;5068340;28;20474;-32
2023/07/26 07:18:55;;;;;;;9.32;5.60;;;14.30;99.90;;;;;;5065713;28;20036;-31
2023/07/26 07:21:21;;;;;;;7.03;5.05;;;14.40;99.90;;;;;;5067337;28;20036;-33
2023/07/26 07:23:47;;;;;;;7.32;5.10;;;14.30;99.90;;;;;;5065670;28;20559;-33
2023/07/26 07:26:13;;;;;;;7.15;5.28;;;14.40;99.90;;;;;;5068985;28;20133;-33
2023/07/26 07:28:39;;;;;;;6.82;4.97;;;14.30;99.90;;;;;;5065817;28;20111;-33
2023/07/26 07:31:05;;;;;;;6.35;4.68;;;14.20;99.90;;;;;;5070848;28;20489;-32
2023/07/26 07:33:31;;;;;;;5.00;4.30;;;14.20;99.90;;;;;;5088365;28;20590;-35
2023/07/26 07:35:56;;;;;;;5.30;4.55;;;14.00;99.90;;;;;;5091685;28;20074;-32
2023/07/26 07:38:22;;;;;;;6.15;4.38;;;14.00;99.90;;;;;;5089353;28;20529;-33
2023/07/26 07:40:48;;;;;;;5.45;4.45;;;14.00;99.90;;;;;;5087739;28;20292;-32
2023/07/26 07:43:13;;;;;;;7.10;4.13;;;14.00;99.90;;;;;;5080497;28;20580;-32
2023/07/26 07:45:42;;;;;;;4.80;4.03;;;14.10;99.90;;;;;;5087746;28;20065;-34
2023/07/26 07:48:08;;;;;;;5.70;3.97;;;14.10;99.90;;;;;;5086855;28;20028;-31
2023/07/26 07:50:34;;;;;;;5.05;4.15;;;14.10;99.90;;;;;;5086105;28;20026;-33
2023/07/26 07:53:00;;;;;;;6.72;4.43;;;14.20;99.90;;;;;;5087450;28;20109;-32
2023/07/26 07:55:26;;;;;;;5.20;3.72;;;14.40;99.90;;;;;;5087996;28;20052;-31
2023/07/26 07:57:52;;;;;;;4.80;4.30;;;14.60;99.90;;;;;;5085352;28;20496;-32
2023/07/26 08:00:18;;;;;;;5.20;4.22;;;14.80;99.90;;;;;;5085563;28;20039;-33
2023/07/26 08:02:43;;;;;;;5.47;4.13;;;15.00;99.90;;;;;;5083385;28;20035;-33
2023/07/26 08:05:10;;;;;;;4.68;3.75;;;15.20;99.90;;;;;;5089129;28;20035;-37
2023/07/26 08:07:36;;;;;;;4.78;4.30;;;15.20;99.90;;;;;;5086452;28;20402;-32
2023/07/26 08:10:02;;;;;;;4.05;3.65;;;15.30;99.90;;;;;;5084550;28;20028;-40
2023/07/26 08:12:27;;;;;;;4.45;3.70;;;15.30;99.90;;;;;;5085053;28;20563;-42
2023/07/26 08:14:53;;;;;;;3.90;3.47;;;15.40;99.90;;;;;;5082884;28;20377;-42
2023/07/26 08:17:19;;;;;;;6.53;3.88;;;15.70;99.90;;;;;;5081731;28;20028;-39
2023/07/26 08:19:46;;;;;;;6.47;4.05;;;16.00;99.90;;;;;;5085782;28;20074;-41
2023/07/26 08:22:11;;;;;;;4.50;3.75;;;16.20;99.90;;;;;;5084002;28;20028;-41
2023/07/26 08:24:37;;;;;;;6.00;3.70;;;16.40;99.90;;;;;;5081326;28;20218;-42
2023/07/26 08:27:05;;;;;;;4.25;3.67;;;16.50;99.90;;;;;;5085090;28;20573;-40
2023/07/26 08:29:31;;;;;;;;;;;16.40;99.90;;;;;;5084247;28;20089;-40
2023/07/26 08:31:56;;;;;;;4.05;3.40;;;16.40;99.90;;;;;;5083868;27;19924;-40
2023/07/26 08:34:22;;;;;;;6.03;3.28;;;16.40;99.90;;;;;;5085267;28;20027;-41
2023/07/26 08:36:48;;;;;;;4.65;3.40;;;16.40;99.90;;;;;;5084278;28;20036;-40
2023/07/26 08:39:13;;;;;;;4.10;3.35;;;16.50;99.90;;;;;;5086389;28;20481;-42
2023/07/26 08:41:39;;;;;;;5.10;3.38;;;16.60;99.90;;;;;;5086105;28;20035;-39
2023/07/26 08:44:07;;;;;;;7.03;3.45;;;16.60;99.90;;;;;;5082724;28;20036;-41
2023/07/26 08:46:33;;;;;;;5.25;3.65;;;16.60;99.90;;;;;;5082981;28;20501;-41
2023/07/26 08:48:59;;;;;;;4.68;3.47;;;16.70;99.90;;;;;;5085579;28;20027;-41
2023/07/26 08:51:27;;;;;;;6.47;3.85;;;16.80;99.90;;;;;;5080369;28;20032;-42
2023/07/26 08:53:55;;;;;;;5.07;3.40;;;16.90;99.90;;;;;;5082491;28;20063;-42
2023/07/26 08:56:20;;;;;;;3.97;3.03;;;16.90;99.90;;;;;;5084512;28;20086;-41
2023/07/26 08:58:46;;;;;;;4.55;3.55;;;16.80;99.90;;;;;;5089487;28;20489;-42
2023/07/26 09:01:12;;;;;;;4.88;3.88;;;16.90;99.90;;;;;;5082727;28;20036;-42
2023/07/26 09:03:38;;;;;;;7.15;3.45;;;17.00;99.90;;;;;;5097429;28;20626;-38
2023/07/26 09:06:05;;;;;;;4.07;3.17;;;16.90;99.90;;;;;;5084032;28;20486;-41
2023/07/26 09:08:31;;;;;;;4.23;3.70;;;17.00;99.90;;;;;;5078913;28;20070;-38
2023/07/26 09:10:56;;;;;;;2.85;2.65;;;16.90;99.90;;;;;;5086391;28;20036;-40
2023/07/26 09:13:22;;;;;;;3.25;2.95;;;16.50;99.90;;;;;;5080741;28;20028;-42
2023/07/26 09:15:49;;;;;;;4.65;3.58;;;16.40;99.90;;;;;;5083596;28;20103;-42
2023/07/26 09:18:14;;;;;;;5.45;3.88;;;16.70;99.90;;;;;;5086537;28;20026;-35
2023/07/26 09:20:40;;;;;;;6.07;3.55;;;17.00;99.90;;;;;;5083129;28;20020;-33
2023/07/26 09:23:07;;;;;;;4.13;3.42;;;17.20;99.90;;;;;;5083519;28;20032;-35
2023/07/26 09:25:37;;;;;;;4.75;3.00;;;17.70;99.90;;;;;;5080678;28;20032;-33
2023/07/26 09:28:04;;;;;;;2.97;2.72;;;17.90;99.90;;;;;;5100144;28;20465;-32
2023/07/26 09:30:33;;;;;;;3.83;3.35;;;17.70;99.90;;;;;;5084301;28;20031;-34
2023/07/26 09:33:01;;;;;;;3.20;2.90;;;17.50;99.90;;;;;;5084036;28;20036;-34
2023/07/26 09:35:27;;;;;;;3.47;2.90;;;17.50;99.90;;;;;;5085819;28;20063;-32
2023/07/26 09:37:52;;;;;;;2.97;2.50;;;17.80;99.90;;;;;;5084604;28;20480;-32
2023/07/26 09:40:30;;;;;;;5.55;2.95;;;17.60;99.90;;;;;;5082623;28;20030;-32
2023/07/26 09:42:56;;;;;;;3.17;2.65;;;18.00;99.90;;;;;;5098946;28;20478;-32
2023/07/26 09:45:24;;;;;;;4.30;2.80;;;18.20;99.90;;;;;;5082699;28;20049;-32
2023/07/26 09:47:54;;;;;;;4.22;2.92;;;18.50;99.90;;;;;;5082056;28;20028;-34
2023/07/26 09:50:23;;;;;;;4.45;2.42;;;18.70;99.90;;;;;;5084331;28;20039;-32
2023/07/26 09:52:50;;;;;;;4.32;2.80;;;18.60;99.90;;;;;;5081798;28;20389;-32
2023/07/26 09:55:16;;;;;;;2.78;2.45;;;18.40;99.90;;;;;;5080311;28;20437;-33
2023/07/26 09:57:43;;;;;;;3.33;2.20;;;18.70;99.90;;;;;;5101587;27;20032;-34
2023/07/26 10:00:11;;;;;;;4.57;2.28;;;19.00;99.90;;;;;;5084363;28;21044;-35
2023/07/26 10:02:37;;;;;;;4.25;2.55;;;19.20;99.90;;;;;;5081007;28;20485;-32
2023/07/26 10:05:05;;;;;;;2.95;2.65;;;19.50;99.90;;;;;;5084471;28;20509;-31
2023/07/26 10:07:31;;;;;;;;;;;19.10;99.90;;;;;;5083237;28;20028;-33
2023/07/26 10:09:58;;;;;;;2.50;2.30;;;18.80;99.90;;;;;;5082571;28;19913;-34
2023/07/26 10:12:26;;;;;;;2.60;2.30;;;18.50;99.90;;;;;;5090607;28;20020;-32
2023/07/26 10:14:56;;;;;;;2.45;2.25;;;18.30;99.90;;;;;;5090224;28;20652;-32
2023/07/26 10:17:25;;;;;;;4.28;2.38;;;18.60;99.90;;;;;;5089669;28;20131;-33
2023/07/26 10:19:52;;;;;;;3.72;2.67;;;18.80;99.90;;;;;;5090537;27;20032;-32
2023/07/26 10:22:18;;;;;;;5.75;2.97;;;18.80;99.90;;;;;;5087517;28;20516;-30
2023/07/26 10:24:45;;;;;;;2.22;2.03;;;18.50;99.90;;;;;;5093554;28;20059;-32
2023/07/26 10:27:12;;;;;;;2.33;1.92;;;18.20;99.90;;;;;;5090115;28;20469;-31
2023/07/26 10:29:38;;;;;;;2.58;1.90;;;17.70;99.90;;;;;;5090225;28;20534;-42
2023/07/26 10:32:07;;;;;;;2.00;1.88;;;17.30;99.90;;;;;;5099164;27;20054;-41
2023/07/26 10:34:33;;;;;;;2.35;1.80;;;17.10;99.90;;;;;;5092162;28;20028;-42
2023/07/26 10:36:59;;;;;;;2.55;2.20;;;16.80;99.90;;;;;;5087069;28;20030;-41
2023/07/26 10:39:32;;;;;;;2.55;2.30;;;16.80;99.90;;;;;;5088763;28;20028;-40
2023/07/26 10:41:58;;;;;;;2.17;1.98;;;16.70;99.90;;;;;;5078867;28;21582;-38
2023/07/26 10:44:24;;;;;;;3.45;2.72;;;16.50;99.90;;;;;;5079091;28;20063;-41
2023/07/26 10:47:03;;;;;;;2.90;2.65;;;16.30;99.90;;;;;;5082004;28;20024;-41
2023/07/26 10:49:31;;;;;;;6.65;2.80;;;15.80;99.90;;;;;;5092147;28;20028;-42
2023/07/26 10:51:59;;;;;;;2.50;2.30;;;15.50;99.90;;;;;;5089301;28;20024;-41
2023/07/26 10:54:51;;;;;;;3.83;2.60;;;15.30;99.90;;;;;;5087261;28;20044;-41
2023/07/26 10:57:26;;;;;;;2.67;1.92;;;14.90;99.90;;;;;;5083007;28;20126;-41
2023/07/26 10:59:57;;;;;;;1.98;1.50;;;14.80;99.90;;;;;;5091631;28;20064;-42
2023/07/26 11:02:42;;;;;;;2.25;1.85;;;14.50;99.90;;;;;;5086664;28;20032;-40
2023/07/26 11:05:21;;;;;;;2.17;1.50;;;14.50;99.90;;;;;;5103072;27;20036;-41
2023/07/26 11:08:07;;;;;;;1.38;1.27;;;14.20;99.90;;;;;;5088127;28;20032;-37
2023/07/26 11:10:50;;;;;;;1.98;1.33;;;14.20;99.90;;;;;;5087847;28;20024;-33
2023/07/26 11:13:26;;;;;;;1.40;1.30;;;14.20;99.90;;;;;;5085399;28;20498;-33
2023/07/26 11:15:52;;;;;;;2.08;1.70;;;14.20;99.90;;;;;;5088262;28;20028;-36
2023/07/26 11:18:20;;;;;;;2.35;1.90;;;14.30;99.90;;;;;;5085911;28;20043;-34
2023/07/26 11:20:47;;;;;;;2.00;1.67;;;14.40;99.90;;;;;;5085601;28;20039;-37
2023/07/26 11:23:25;;;;;;;2.00;1.90;;;14.50;99.90;;;;;;5083982;28;20040;-34
2023/07/26 11:25:53;;;;;;;2.80;2.60;;;14.40;99.90;;;;;;5087766;28;20140;-36
2023/07/26 11:28:19;;;;;;;2.85;2.33;;;14.60;99.90;;;;;;5083223;28;20032;-34
2023/07/26 11:30:55;;;;;;;2.30;2.10;;;14.70;99.90;;;;;;5082745;28;20037;-34
2023/07/26 11:33:35;;;;;;;2.33;2.15;;;14.70;99.90;;;;;;5061797;28;20028;-35
2023/07/26 11:36:07;;;;;;;3.65;2.17;;;14.90;99.90;;;;;;5064682;28;20079;-34
2023/07/26 11:38:33;;;;;;;3.20;2.65;;;15.00;99.90;;;;;;5063105;28;20037;-34
2023/07/26 11:40:59;;;;;;;3.05;2.38;;;15.10;99.90;;;;;;5066956;28;20063;-33
2023/07/26 11:43:29;;;;;;;4.43;2.60;;;15.20;99.90;;;;;;5067774;28;20052;-33
2023/07/26 11:45:56;;;;;;;2.22;2.03;;;15.50;99.90;;;;;;5066602;28;20585;-31
2023/07/26 11:48:22;;;;;;;2.15;1.65;;;15.70;99.90;;;;;;5064859;28;20032;-33
2023/07/26 11:50:52;;;;;;;3.38;1.98;;;15.70;99.90;;;;;;5061526;28;20363;-33
2023/07/26 11:53:18;;;;;;;2.78;1.90;;;15.80;99.90;;;;;;5066110;28;20212;-32
2023/07/26 11:55:44;;;;;;;2.40;1.65;;;15.80;99.90;;;;;;5063652;28;20071;-35
2023/07/26 11:58:12;;;;;;;3.28;1.70;;;15.80;99.90;;;;;;5064325;28;20057;-31
2023/07/26 12:00:44;;;;;;;2.10;1.33;;;15.70;99.90;;;;;;5068186;28;20028;-32
2023/07/26 12:03:10;;;;;;;1.60;1.50;;;15.70;99.90;;;;;;5063940;28;20036;-31
2023/07/26 12:05:42;;;;;;;2.83;1.70;;;15.70;99.90;;;;;;5065722;28;20028;-35
2023/07/26 12:08:08;;;;;;;1.65;1.55;;;15.70;99.90;;;;;;5063115;28;20098;-34
2023/07/26 12:10:40;;;;;;;1.70;1.60;;;15.60;99.90;;;;;;5063288;28;20025;-37
2023/07/26 12:13:08;;;;;;;1.70;1.60;;;15.70;99.90;;;;;;5062200;28;20531;-32
2023/07/26 12:15:52;;;;;;;2.22;1.42;;;15.80;99.90;;;;;;5077369;28;20317;-34
2023/07/26 12:18:19;;;;;;;1.88;1.40;;;15.70;99.90;;;;;;5065740;28;20048;-31
2023/07/26 12:20:56;;;;;;;2.38;1.50;;;15.70;99.90;;;;;;5061620;28;20016;-34
2023/07/26 12:23:22;;;;;;;1.63;1.52;;;15.70;99.90;;;;;;5061715;28;20758;-32
2023/07/26 12:25:56;;;;;;;2.65;1.48;;;15.80;99.90;;;;;;5065453;28;20549;-31
2023/07/26 12:28:22;;;;;;;1.63;1.50;;;15.80;99.90;;;;;;5067198;28;20029;-33
2023/07/26 12:30:55;;;;;;;1.52;1.42;;;15.80;99.90;;;;;;5068440;28;20025;-31
2023/07/26 12:33:21;;;;;;;1.67;1.58;;;15.90;99.90;;;;;;5064676;28;20031;-36
2023/07/26 12:35:47;;;;;;;1.73;1.60;;;15.90;99.90;;;;;;5064415;28;20055;-34
2023/07/26 12:38:17;;;;;;;1.55;1.45;;;15.90;99.90;;;;;;5064205;28;20103;-32
2023/07/26 12:40:44;;;;;;;1.52;1.42;;;15.80;99.90;;;;;;5066487;28;20032;-32
2023/07/26 12:43:23;;;;;;;1.77;1.60;;;15.80;99.90;;;;;;5066143;28;20023;-35